createdAt,value
2019-04-14T00:02:18.518Z,60.46
2019-04-14T00:04:48.772Z,60.55
2019-04-14T00:07:18.755Z,60.77
2019-04-14T00:09:47.918Z,60.93
2019-04-14T00:12:17.015Z,61.03
2019-04-14T00:14:46.923Z,61.26
2019-04-14T00:17:17.229Z,61.37
2019-04-14T00:19:46.375Z,61.43
2019-04-14T00:22:16.254Z,61.61
2019-04-14T00:24:46.635Z,61.84
2019-04-14T00:27:17.058Z,61.94
2019-04-14T00:29:46.199Z,62.10
2019-04-14T00:32:16.249Z,62.22
2019-04-14T00:35:16.808Z,62.31
2019-04-14T00:38:08.493Z,62.45
2019-04-14T00:40:43.463Z,62.62
2019-04-14T00:43:31.534Z,62.82
2019-04-14T00:46:05.839Z,62.99
2019-04-14T00:48:34.980Z,63.12
2019-04-14T00:51:04.870Z,63.24
2019-04-14T00:53:33.979Z,63.50
2019-04-14T00:56:04.068Z,63.74
2019-04-14T00:58:34.303Z,63.92
2019-04-14T01:01:04.743Z,64.09
2019-04-14T01:03:35.070Z,64.27
2019-04-14T01:06:05.456Z,64.47
2019-04-14T01:08:34.585Z,64.52
2019-04-14T01:11:03.632Z,64.64
2019-04-14T01:13:33.275Z,64.75
2019-04-14T01:16:08.721Z,64.89
2019-04-14T01:18:34.082Z,65.09
2019-04-14T01:21:04.501Z,65.25
2019-04-14T01:23:34.718Z,65.32
2019-04-14T01:26:05.025Z,65.45
2019-04-14T01:28:35.359Z,65.57
2019-04-14T01:31:05.525Z,65.69
2019-04-14T01:33:35.598Z,65.84
2019-04-14T01:36:06.063Z,66.00
2019-04-14T01:38:36.375Z,66.10
2019-04-14T01:41:06.445Z,66.23
2019-04-14T01:43:36.418Z,66.37
2019-04-14T01:46:14.643Z,66.43
2019-04-14T01:48:36.714Z,66.58
2019-04-14T01:51:31.005Z,66.60
2019-04-14T01:54:21.395Z,66.76
2019-04-14T01:57:02.413Z,66.75
2019-04-14T01:59:32.661Z,66.91
2019-04-14T02:02:03.018Z,66.91
2019-04-14T02:04:33.380Z,66.97
2019-04-14T02:07:03.740Z,67.06
2019-04-14T02:09:33.599Z,67.01
2019-04-14T02:12:03.844Z,67.02
2019-04-14T02:14:34.194Z,67.06
2019-04-14T02:17:04.906Z,67.06
2019-04-14T02:19:34.949Z,67.09
2019-04-14T02:22:05.160Z,67.17
2019-04-14T02:24:35.210Z,67.22
2019-04-14T02:27:05.474Z,67.17
2019-04-14T02:29:34.646Z,67.25
2019-04-14T02:35:06.227Z,67.54
2019-04-14T02:37:40.335Z,67.62
2019-04-14T02:40:04.084Z,67.68
2019-04-14T02:47:53.710Z,67.94
2019-04-14T02:50:08.750Z,68.00
2019-04-14T02:52:35.001Z,67.96
2019-04-14T02:55:10.921Z,68.02
2019-04-14T02:57:57.319Z,68.06
2019-04-14T03:00:07.845Z,68.16
2019-04-14T03:02:38.893Z,68.16
2019-04-14T03:10:14.658Z,68.39
2019-04-14T03:12:46.589Z,68.42
2019-04-14T03:15:17.737Z,68.38
2019-04-14T03:18:20.405Z,68.43
2019-04-14T03:20:52.565Z,68.47
2019-04-14T03:23:34.835Z,68.57
2019-04-14T03:26:01.028Z,68.63
2019-04-14T03:28:45.383Z,68.62
2019-04-14T03:34:07.499Z,68.71
2019-04-14T03:36:50.346Z,68.70
2019-04-14T03:38:54.995Z,68.80
2019-04-14T03:41:17.396Z,68.78
2019-04-14T03:43:38.849Z,68.80
2019-04-14T03:46:19.647Z,68.82
2019-04-14T03:51:21.224Z,68.93
2019-04-14T03:53:43.949Z,68.93
2019-04-14T03:56:27.250Z,68.98
2019-04-14T03:58:57.609Z,68.99
2019-04-14T04:01:27.960Z,69.01
2019-04-14T04:03:57.108Z,69.04
2019-04-14T04:06:27.078Z,69.11
2019-04-14T04:08:57.367Z,69.17
2019-04-14T04:11:26.466Z,69.17
2019-04-14T04:13:56.391Z,69.20
2019-04-14T04:16:37.641Z,69.28
2019-04-14T04:19:18.294Z,69.37
2019-04-14T04:22:12.904Z,69.42
2019-04-14T04:24:57.005Z,69.43
2019-04-14T04:27:46.181Z,69.50
2019-04-14T04:30:25.386Z,69.63
2019-04-14T04:33:10.953Z,69.71
2019-04-14T04:35:47.905Z,69.77
2019-04-14T04:38:35.516Z,69.83
2019-04-14T04:41:05.773Z,69.81
2019-04-14T04:43:35.041Z,69.97
2019-04-14T04:46:04.861Z,70.03
2019-04-14T04:48:34.956Z,70.06
2019-04-14T04:51:05.021Z,70.16
2019-04-14T04:53:34.091Z,70.10
2019-04-14T04:56:03.636Z,70.11
2019-04-14T04:58:32.842Z,70.16
2019-04-14T05:01:01.953Z,70.13
2019-04-14T05:03:31.815Z,70.15
2019-04-14T05:06:46.667Z,70.16
2019-04-14T05:09:33.765Z,70.22
2019-04-14T05:12:17.905Z,70.26
2019-04-14T05:14:52.408Z,70.22
2019-04-14T05:17:21.669Z,70.25
2019-04-14T05:19:51.815Z,70.25
2019-04-14T05:22:22.250Z,70.26
2019-04-14T05:24:51.382Z,70.28
2019-04-14T05:27:21.067Z,70.34
2019-04-14T05:29:50.152Z,70.39
2019-04-14T05:32:19.471Z,70.49
2019-04-14T05:34:50.127Z,70.53
2019-04-14T05:37:20.288Z,70.54
2019-04-14T05:39:50.414Z,70.61
2019-04-14T05:42:23.804Z,70.58
2019-04-14T05:44:51.445Z,70.64
2019-04-14T05:47:21.789Z,70.68
2019-04-14T05:49:54.300Z,70.78
2019-04-14T05:52:21.621Z,70.79
2019-04-14T05:54:51.504Z,70.79
2019-04-14T05:57:20.585Z,70.75
2019-04-14T05:59:50.523Z,70.71
2019-04-14T06:02:20.219Z,70.73
2019-04-14T06:04:50.417Z,70.67
2019-04-14T06:07:19.624Z,70.65
2019-04-14T06:09:48.681Z,70.64
2019-04-14T06:12:17.797Z,70.64
2019-04-14T06:14:46.749Z,70.71
2019-04-14T06:17:15.674Z,70.73
2019-04-14T06:19:44.730Z,70.78
2019-04-14T06:22:13.807Z,70.71
2019-04-14T06:24:42.873Z,70.76
2019-04-14T06:27:11.899Z,70.77
2019-04-14T06:29:40.961Z,70.77
2019-04-14T06:32:19.361Z,70.83
2019-04-14T06:35:11.252Z,70.80
2019-04-14T06:37:59.330Z,70.80
2019-04-14T06:40:31.350Z,70.86
2019-04-14T06:43:00.403Z,70.91
2019-04-14T06:45:29.479Z,70.86
2019-04-14T06:47:58.540Z,70.86
2019-04-14T06:50:27.594Z,70.96
2019-04-14T06:52:56.672Z,70.97
2019-04-14T06:55:25.655Z,70.94
2019-04-14T06:57:54.651Z,71.00
2019-04-14T07:00:23.701Z,70.93
2019-04-14T07:02:52.693Z,70.92
2019-04-14T07:05:21.746Z,70.94
2019-04-14T07:07:56.777Z,70.94
2019-04-14T07:10:21.603Z,70.93
2019-04-14T07:12:50.672Z,70.88
2019-04-14T07:15:19.731Z,70.93
2019-04-14T07:17:48.760Z,70.93
2019-04-14T07:20:17.811Z,70.98
2019-04-14T07:22:46.820Z,71.02
2019-04-14T07:25:15.886Z,71.05
2019-04-14T07:27:44.984Z,71.09
2019-04-14T07:30:33.061Z,71.12
2019-04-14T07:33:20.090Z,71.13
2019-04-14T07:36:26.669Z,71.17
2019-04-14T07:39:26.762Z,71.21
2019-04-14T07:42:01.828Z,71.21
2019-04-14T07:44:43.551Z,71.28
2019-04-14T07:47:17.062Z,71.35
2019-04-14T07:50:17.047Z,71.43
2019-04-14T07:53:05.128Z,71.47
2019-04-14T07:55:52.063Z,71.47
2019-04-14T07:58:27.896Z,71.53
2019-04-14T08:01:09.803Z,71.64
2019-04-14T08:04:13.041Z,71.81
2019-04-14T08:06:45.906Z,72.02
2019-04-14T08:09:14.971Z,72.12
2019-04-14T08:11:44.059Z,72.28
2019-04-14T08:14:13.114Z,72.47
2019-04-14T08:16:42.207Z,72.67
2019-04-14T08:19:11.266Z,72.92
2019-04-14T08:21:40.507Z,73.15
2019-04-14T08:24:09.563Z,73.38
2019-04-14T08:26:38.663Z,73.55
2019-04-14T08:29:07.718Z,73.78
2019-04-14T08:31:36.803Z,74.19
2019-04-14T08:34:05.875Z,74.35
2019-04-14T08:36:34.972Z,74.53
2019-04-14T08:39:06.141Z,74.68
2019-04-14T08:41:43.421Z,74.78
2019-04-14T08:44:20.158Z,74.98
2019-04-14T08:47:16.571Z,75.04
2019-04-14T08:49:58.029Z,75.22
2019-04-14T08:52:34.733Z,75.40
2019-04-14T08:55:23.145Z,75.49
2019-04-14T08:58:04.268Z,75.64
2019-04-14T09:00:56.883Z,75.67
2019-04-14T09:03:44.529Z,75.75
2019-04-14T09:06:27.333Z,75.83
2019-04-14T09:09:02.179Z,75.95
2019-04-14T09:11:45.106Z,76.10
2019-04-14T09:14:14.198Z,76.21
2019-04-14T09:16:43.278Z,76.42
2019-04-14T09:19:12.366Z,76.62
2019-04-14T09:21:41.434Z,76.66
2019-04-14T09:24:10.449Z,76.69
2019-04-14T09:26:39.465Z,76.84
2019-04-14T09:29:08.482Z,76.91
2019-04-14T09:31:37.473Z,76.98
2019-04-14T09:34:06.560Z,77.02
2019-04-14T09:36:35.639Z,77.03
2019-04-14T09:39:06.272Z,77.13
2019-04-14T09:41:35.389Z,77.26
2019-04-14T09:44:04.872Z,77.32
2019-04-14T09:46:33.936Z,77.31
2019-04-14T09:49:03.028Z,77.40
2019-04-14T09:51:32.094Z,77.47
2019-04-14T09:54:01.183Z,77.43
2019-04-14T09:56:30.247Z,77.42
2019-04-14T09:58:59.335Z,77.38
2019-04-14T10:01:28.402Z,77.48
2019-04-14T10:03:57.404Z,77.46
2019-04-14T10:06:26.405Z,77.54
2019-04-14T10:08:55.413Z,77.56
2019-04-14T10:11:24.484Z,77.60
2019-04-14T10:13:53.486Z,77.65
2019-04-14T10:16:22.564Z,77.68
2019-04-14T10:18:51.620Z,77.68
2019-04-14T10:21:20.685Z,77.64
2019-04-14T10:23:49.620Z,77.62
2019-04-14T10:26:18.718Z,77.73
2019-04-14T10:28:50.597Z,77.74
2019-04-14T10:31:18.607Z,77.77
2019-04-14T10:33:47.626Z,77.74
2019-04-14T10:36:16.605Z,77.65
2019-04-14T10:38:45.621Z,77.63
2019-04-14T10:41:14.686Z,77.61
2019-04-14T10:43:43.772Z,77.56
2019-04-14T10:46:12.689Z,77.57
2019-04-14T10:48:41.769Z,77.62
2019-04-14T10:51:10.829Z,77.76
2019-04-14T10:53:39.918Z,77.84
2019-04-14T10:56:08.985Z,77.93
2019-04-14T10:58:38.061Z,77.96
2019-04-14T11:01:07.121Z,77.94
2019-04-14T11:03:36.212Z,77.90
2019-04-14T11:06:15.251Z,77.94
2019-04-14T11:08:44.339Z,77.88
2019-04-14T11:11:13.401Z,77.97
2019-04-14T11:13:42.396Z,78.05
2019-04-14T11:16:11.467Z,78.02
2019-04-14T11:18:40.541Z,78.00
2019-04-14T11:21:09.607Z,78.07
2019-04-14T11:23:38.695Z,78.04
2019-04-14T11:26:07.747Z,78.13
2019-04-14T11:28:36.842Z,78.22
2019-04-14T11:31:06.070Z,78.31
2019-04-14T11:33:53.134Z,78.32
2019-04-14T11:36:43.884Z,78.35
2019-04-14T11:39:14.374Z,78.43
2019-04-14T11:41:43.410Z,78.60
2019-04-14T11:44:12.504Z,78.65
2019-04-14T11:46:41.546Z,78.67
2019-04-14T11:49:10.621Z,78.72
2019-04-14T11:51:39.611Z,78.98
2019-04-14T11:54:08.591Z,78.94
2019-04-14T11:56:37.691Z,78.97
2019-04-14T11:59:06.736Z,78.99
2019-04-14T12:01:57.802Z,79.10
2019-04-14T12:04:44.046Z,79.11
2019-04-14T12:07:31.545Z,79.13
2019-04-14T12:10:06.498Z,79.05
2019-04-14T12:12:35.555Z,79.12
2019-04-14T12:15:07.614Z,79.28
2019-04-14T12:17:36.139Z,79.41
2019-04-14T12:20:06.826Z,79.42
2019-04-14T12:22:35.897Z,79.40
2019-04-14T12:25:05.529Z,79.42
2019-04-14T12:27:34.554Z,79.44
2019-04-14T12:30:04.090Z,79.45
2019-04-14T12:32:33.554Z,79.55
2019-04-14T12:35:02.636Z,79.54
2019-04-14T12:37:31.628Z,79.63
2019-04-14T12:40:00.713Z,79.63
2019-04-14T12:42:51.004Z,79.59
2019-04-14T12:45:37.964Z,79.62
2019-04-14T12:48:22.094Z,79.58
2019-04-14T12:50:54.367Z,79.58
2019-04-14T12:53:23.441Z,79.65
2019-04-14T12:55:52.517Z,79.65
2019-04-14T12:58:26.942Z,79.70
2019-04-14T13:01:00.774Z,79.76
2019-04-14T13:03:32.037Z,79.60
2019-04-14T13:06:01.111Z,79.67
2019-04-14T13:08:30.095Z,79.71
2019-04-14T13:10:59.178Z,79.80
2019-04-14T13:13:28.341Z,79.95
2019-04-14T13:15:57.424Z,80.08
2019-04-14T13:18:26.416Z,80.09
2019-04-14T13:20:55.492Z,80.10
2019-04-14T13:23:24.550Z,80.14
2019-04-14T13:25:53.636Z,80.17
2019-04-14T13:28:22.726Z,80.23
2019-04-14T13:30:52.494Z,80.23
2019-04-14T13:33:21.554Z,80.31
2019-04-14T13:35:50.694Z,80.32
2019-04-14T13:38:19.743Z,80.36
2019-04-14T13:40:48.817Z,80.40
2019-04-14T13:43:17.820Z,80.53
2019-04-14T13:45:46.881Z,80.54
2019-04-14T13:48:15.888Z,80.57
2019-04-14T13:50:44.949Z,80.53
2019-04-14T13:53:14.023Z,80.48
2019-04-14T13:55:43.077Z,80.49
2019-04-14T13:58:12.160Z,80.40
2019-04-14T14:00:41.221Z,80.41
2019-04-14T14:03:10.294Z,80.37
2019-04-14T14:05:39.360Z,80.36
2019-04-14T14:08:08.441Z,80.32
2019-04-14T14:10:37.513Z,80.29
2019-04-14T14:13:21.559Z,80.24
2019-04-14T14:16:08.339Z,80.20
2019-04-14T14:18:59.375Z,80.24
2019-04-14T14:21:41.353Z,80.26
2019-04-14T14:24:35.175Z,80.24
2019-04-14T14:27:04.352Z,80.31
2019-04-14T14:29:33.469Z,80.22
2019-04-14T14:32:05.038Z,80.32
2019-04-14T14:34:34.047Z,80.29
2019-04-14T14:37:03.038Z,80.30
2019-04-14T14:39:32.131Z,80.21
2019-04-14T14:42:01.118Z,80.25
2019-04-14T14:44:36.206Z,80.36
2019-04-14T14:47:17.794Z,80.50
2019-04-14T14:49:58.361Z,80.52
2019-04-14T14:52:27.453Z,80.55
2019-04-14T14:54:56.437Z,80.59
2019-04-14T14:57:25.554Z,80.57
2019-04-14T14:59:54.664Z,80.43
2019-04-14T15:02:23.928Z,80.41
2019-04-14T15:04:52.953Z,80.37
2019-04-14T15:07:21.934Z,80.38
2019-04-14T15:09:50.948Z,80.37
2019-04-14T15:12:20.010Z,80.38
2019-04-14T15:14:49.016Z,80.37
2019-04-14T15:17:18.281Z,80.29
2019-04-14T15:19:47.300Z,80.18
2019-04-14T15:22:16.281Z,80.21
2019-04-14T15:24:45.364Z,80.23
2019-04-14T15:27:14.446Z,80.23
2019-04-14T15:29:43.531Z,80.17
2019-04-14T15:32:12.652Z,80.05
2019-04-14T15:34:42.120Z,80.02
2019-04-14T15:37:11.133Z,80.05
2019-04-14T15:39:40.518Z,80.10
2019-04-14T15:42:09.562Z,80.11
2019-04-14T15:44:38.642Z,80.05
2019-04-14T15:47:07.698Z,80.05
2019-04-14T15:49:36.703Z,80.04
2019-04-14T15:52:05.762Z,80.04
2019-04-14T15:54:35.750Z,80.08
2019-04-14T15:57:24.902Z,80.02
2019-04-14T16:00:11.716Z,79.98
2019-04-14T16:02:46.477Z,79.98
2019-04-14T16:05:37.814Z,79.95
2019-04-14T16:08:10.773Z,79.94
2019-04-14T16:10:45.341Z,79.97
2019-04-14T16:13:36.230Z,79.94
2019-04-14T16:16:27.422Z,79.91
2019-04-14T16:19:13.889Z,79.90
2019-04-14T16:21:42.943Z,79.90
2019-04-14T16:24:12.000Z,79.92
2019-04-14T16:27:00.118Z,79.96
2019-04-14T16:29:39.201Z,79.98
2019-04-14T16:32:18.019Z,80.02
2019-04-14T16:34:50.609Z,80.05
2019-04-14T16:37:19.665Z,80.10
2019-04-14T16:39:48.665Z,80.16
2019-04-14T16:42:17.723Z,80.17
2019-04-14T16:44:46.735Z,80.22
2019-04-14T16:47:15.711Z,80.27
2019-04-14T16:49:44.795Z,80.27
2019-04-14T16:52:41.868Z,80.23
2019-04-14T16:55:23.420Z,80.28
2019-04-14T16:58:09.281Z,80.33
2019-04-14T17:00:41.744Z,80.34
2019-04-14T17:03:10.794Z,80.38
2019-04-14T17:05:39.889Z,80.39
2019-04-14T17:08:08.991Z,80.38
2019-04-14T17:10:38.079Z,80.35
2019-04-14T17:13:07.256Z,80.32
2019-04-14T17:15:54.112Z,80.31
2019-04-14T17:18:42.162Z,80.30
2019-04-14T17:21:31.473Z,80.26
2019-04-14T17:24:16.416Z,80.20
2019-04-14T17:27:00.765Z,80.19
2019-04-14T17:29:54.632Z,80.14
2019-04-14T17:32:28.886Z,80.08
2019-04-14T17:35:09.331Z,80.01
2019-04-14T17:38:09.506Z,79.97
2019-04-14T17:40:56.371Z,79.92
2019-04-14T17:43:39.076Z,79.86
2019-04-14T17:46:16.802Z,79.82
2019-04-14T17:49:07.599Z,79.82
2019-04-14T17:51:47.866Z,79.82
2019-04-14T17:54:34.148Z,79.79
2019-04-14T17:57:24.978Z,79.83
2019-04-14T18:00:11.827Z,79.82
2019-04-14T18:02:54.525Z,79.82
2019-04-14T18:05:33.903Z,79.77
2019-04-14T18:08:12.445Z,79.70
2019-04-14T18:11:00.567Z,79.69
2019-04-14T18:13:47.400Z,79.71
2019-04-14T18:16:24.277Z,79.78
2019-04-14T18:19:18.161Z,79.82
2019-04-14T18:21:47.261Z,79.90
2019-04-14T18:24:16.438Z,79.99
2019-04-14T18:26:45.557Z,80.07
2019-04-14T18:29:30.752Z,80.12
2019-04-14T18:32:07.877Z,80.21
2019-04-14T18:35:14.371Z,80.29
2019-04-14T18:38:01.420Z,80.38
2019-04-14T18:40:55.578Z,80.48
2019-04-14T18:43:52.513Z,80.54
2019-04-14T18:46:29.097Z,80.67
2019-04-14T18:49:10.174Z,80.74
2019-04-14T18:51:43.169Z,80.84
2019-04-14T18:54:31.146Z,80.90
2019-04-14T18:57:07.056Z,80.90
2019-04-14T18:59:53.748Z,80.97
2019-04-14T19:02:22.821Z,81.02
2019-04-14T19:04:51.876Z,81.01
2019-04-14T19:07:20.881Z,81.02
2019-04-14T19:09:49.930Z,81.01
2019-04-14T19:12:36.018Z,81.01
2019-04-14T19:15:25.246Z,81.03
2019-04-14T19:18:01.566Z,80.98
2019-04-14T19:20:30.615Z,80.95
2019-04-14T19:22:59.686Z,80.94
2019-04-14T19:25:28.746Z,80.98
2019-04-14T19:27:57.861Z,80.97
2019-04-14T19:30:26.904Z,80.95
2019-04-14T19:32:55.983Z,80.98
2019-04-14T19:35:26.892Z,81.02
2019-04-14T19:37:55.846Z,81.04
2019-04-14T19:40:24.905Z,81.05
2019-04-14T19:42:53.977Z,81.10
2019-04-14T19:45:23.035Z,81.15
2019-04-14T19:47:52.117Z,81.14
2019-04-14T19:50:21.205Z,81.13
2019-04-14T19:52:50.297Z,81.10
2019-04-14T19:55:20.581Z,81.08
2019-04-14T19:57:49.930Z,81.05
2019-04-14T20:00:18.984Z,81.05
2019-04-14T20:02:47.993Z,80.98
2019-04-14T20:05:17.033Z,80.94
2019-04-14T20:07:46.108Z,80.86
2019-04-14T20:10:15.369Z,80.85
2019-04-14T20:12:44.486Z,80.82
2019-04-14T20:15:16.796Z,80.81
2019-04-14T20:18:07.706Z,80.77
2019-04-14T20:20:55.999Z,80.77
2019-04-14T20:23:30.450Z,80.82
2019-04-14T20:26:19.118Z,80.82
2019-04-14T20:29:07.233Z,80.85
2019-04-14T20:31:38.884Z,80.94
2019-04-14T20:34:07.956Z,81.00
2019-04-14T20:36:37.004Z,81.04
2019-04-14T20:39:09.798Z,81.03
2019-04-14T20:41:38.922Z,81.03
2019-04-14T20:44:08.004Z,81.06
2019-04-14T20:46:37.060Z,81.04
2019-04-14T20:49:06.251Z,81.05
2019-04-14T20:51:35.385Z,81.00
2019-04-14T20:54:04.541Z,80.97
2019-04-14T20:56:33.508Z,80.90
2019-04-14T20:59:02.580Z,80.79
2019-04-14T21:01:33.858Z,80.74
2019-04-14T21:04:10.700Z,80.61
2019-04-14T21:07:01.658Z,80.47
2019-04-14T21:09:58.644Z,80.32
2019-04-14T21:12:36.334Z,80.16
2019-04-14T21:15:23.852Z,79.93
2019-04-14T21:18:07.669Z,79.78
2019-04-14T21:20:48.392Z,79.60
2019-04-14T21:23:35.315Z,79.49
2019-04-14T21:26:22.465Z,79.38
2019-04-14T21:29:10.537Z,79.20
2019-04-14T21:31:44.374Z,78.99
2019-04-14T21:34:35.279Z,78.88
2019-04-14T21:37:16.425Z,78.80
2019-04-14T21:39:53.536Z,78.70
2019-04-14T21:42:22.517Z,78.56
2019-04-14T21:44:51.513Z,78.41
2019-04-14T21:47:20.497Z,78.26
2019-04-14T21:49:49.550Z,78.10
2019-04-14T21:52:37.623Z,77.90
2019-04-14T21:55:06.915Z,77.72
2019-04-14T21:57:58.023Z,77.37
2019-04-14T22:01:25.050Z,77.05
2019-04-14T22:04:04.952Z,76.71
2019-04-14T22:06:37.167Z,76.28
2019-04-14T22:09:11.512Z,76.02
2019-04-14T22:11:40.595Z,75.78
2019-04-14T22:14:09.652Z,75.60
2019-04-14T22:16:38.724Z,75.38
2019-04-14T22:19:07.777Z,75.12
2019-04-14T22:21:36.854Z,74.90
2019-04-14T22:24:05.904Z,74.67
2019-04-14T22:26:35.006Z,74.46
2019-04-14T22:29:04.059Z,74.29
2019-04-14T22:31:33.122Z,74.09
2019-04-14T22:34:02.174Z,74.04
2019-04-14T22:36:31.252Z,73.84
2019-04-14T22:39:00.309Z,73.67
2019-04-14T22:41:29.316Z,73.54
2019-04-14T22:43:58.291Z,73.44
2019-04-14T22:46:27.368Z,73.39
2019-04-14T22:48:56.418Z,73.29
2019-04-14T22:51:25.496Z,73.21
2019-04-14T22:53:54.543Z,73.15
2019-04-14T22:56:23.534Z,73.08
2019-04-14T22:58:52.507Z,73.05
2019-04-14T23:01:25.940Z,72.96
2019-04-14T23:04:06.757Z,72.90
2019-04-14T23:06:57.720Z,72.81
2019-04-14T23:09:34.826Z,72.74
2019-04-14T23:12:21.721Z,72.71
2019-04-14T23:15:16.027Z,72.62
2019-04-14T23:18:16.185Z,72.53
2019-04-14T23:21:00.081Z,72.51
2019-04-14T23:23:42.337Z,72.44
2019-04-14T23:26:11.314Z,72.43
2019-04-14T23:28:40.347Z,72.39
2019-04-14T23:31:09.404Z,72.39
2019-04-14T23:33:38.402Z,72.35
2019-04-14T23:36:07.449Z,72.35
2019-04-14T23:38:36.522Z,72.32
2019-04-14T23:41:05.575Z,72.26
2019-04-14T23:43:34.658Z,72.25
2019-04-14T23:46:03.795Z,72.21
2019-04-14T23:48:32.876Z,72.17
2019-04-14T23:51:01.932Z,72.11
2019-04-14T23:53:31.000Z,72.12
2019-04-14T23:56:00.056Z,72.04
2019-04-14T23:58:29.133Z,72.02
